Riverton, IL (62561)

10:40 AM CST on December 22, 2014 (GMT -0600)
Northgate Subdivision | Change Station
CLOSE
Current Station
Personal Weather Station
Location: Springfield, IL
Elevation: 590 ft
Nearby Weather Stations

Elev 590 ft 39.83 °N, 89.61 °W | Updated 2 seconds ago

Rain
Rain
38.8 °F
Feels Like 39 °F
N
0.0
Wind Variable Wind from ESE
Gusts 4.0 mph

Today
High -- | Low -- °F
--% Chance of Precip.
Yesterday
High -- | Low -- °F
Precip. -- in
7:16 AM 4:37 PM
New Moon, 1% visible
Pressure 29.77 in
Visibility 2.5 miles
Clouds Mostly Cloudy 600 ft
Mostly Cloudy 3100 ft
Overcast 5500 ft
Windchill 39 °F
Dew Point 37 °F
Humidity 95%
Rainfall 0.27 in
Snow Depth Not available.
UV 0 out of 12
Pollen .10 out of 12
Air Quality Not available.
Flu Activity Not available.
METAR KSPI 221552Z 12013KT 2 1/2SM RA BR BKN006 BKN031 OVC055 03/03 A2976 RMK AO2 SLP080 P0005 T00330028

More Conditions Fewer Conditions

Pressure 29.77 in
Visibility 2.5 miles
Clouds Mostly Cloudy 600 ft
Mostly Cloudy 3100 ft
Overcast 5500 ft
Windchill 39 °F
Dew Point 37 °F
Humidity 95%
Rainfall 0.27 in
Snow Depth Not available.
UV 0 out of 12
Pollen .10 out of 12
Air Quality Not available.
Flu Activity Not available.
METAR KSPI 221552Z 12013KT 2 1/2SM RA BR BKN006 BKN031 OVC055 03/03 A2976 RMK AO2 SLP080 P0005 T00330028

More Conditions Fewer Conditions

10-Day Weather Forecast

Almanac

Astronomy

Dec. 22, 2014 Rise Set
Actual Time
Civil Twilight
Nautical Twilight
Astronomical Twilight
Moon
Length of Visible Light
Length of Day
Tomorrow will be .
, % of the Moon is Illuminated

Today's Extremes

State Highs State Lows

Community

WunderPhotos

Upload Photos

1,779,641 photos uploaded!

WunderBlogs® & News

Nearby

Air Quality

  Air Quality AQ Index Pollutant
Not available.

Snow Depth

Station Depth Elevation

Earthquake Activity

City Distance Mag. Time & Date
Minimum magnitude displayed is 2.5.

Coastal Water Temperatures

Place Temperature

Nearby Weather Stations